sensor_id;sensor_type;location;lat;lon;timestamp;P1;durP1;ratioP1;P2;durP2;ratioP2
16832;SDS011;8533;48.426;10.868;2022-08-19T00:02:05;4.87;;;3.80;;
16832;SDS011;8533;48.426;10.868;2022-08-19T00:04:33;4.80;;;3.83;;
16832;SDS011;8533;48.426;10.868;2022-08-19T00:07:03;4.77;;;3.90;;
16832;SDS011;8533;48.426;10.868;2022-08-19T00:09:32;4.70;;;4.00;;
16832;SDS011;8533;48.426;10.868;2022-08-19T00:12:00;5.17;;;3.93;;
16832;SDS011;8533;48.426;10.868;2022-08-19T00:14:28;6.07;;;4.20;;
16832;SDS011;8533;48.426;10.868;2022-08-19T00:16:56;3.97;;;3.17;;
16832;SDS011;8533;48.426;10.868;2022-08-19T00:19:25;6.37;;;3.70;;
16832;SDS011;8533;48.426;10.868;2022-08-19T00:21:53;4.17;;;3.70;;
16832;SDS011;8533;48.426;10.868;2022-08-19T00:24:21;4.97;;;3.67;;
16832;SDS011;8533;48.426;10.868;2022-08-19T00:26:49;3.97;;;3.30;;
16832;SDS011;8533;48.426;10.868;2022-08-19T00:29:19;3.03;;;2.67;;
16832;SDS011;8533;48.426;10.868;2022-08-19T00:31:47;3.93;;;2.80;;
16832;SDS011;8533;48.426;10.868;2022-08-19T00:34:17;5.17;;;3.10;;
16832;SDS011;8533;48.426;10.868;2022-08-19T00:36:45;3.50;;;2.63;;
16832;SDS011;8533;48.426;10.868;2022-08-19T00:39:14;2.17;;;1.93;;
16832;SDS011;8533;48.426;10.868;2022-08-19T00:41:43;2.90;;;2.50;;
16832;SDS011;8533;48.426;10.868;2022-08-19T00:44:15;2.13;;;1.93;;
16832;SDS011;8533;48.426;10.868;2022-08-19T00:46:46;2.50;;;1.97;;
16832;SDS011;8533;48.426;10.868;2022-08-19T00:49:23;2.17;;;1.90;;
16832;SDS011;8533;48.426;10.868;2022-08-19T00:52:05;2.33;;;2.07;;
16832;SDS011;8533;48.426;10.868;2022-08-19T00:57:06;4.07;;;2.07;;
16832;SDS011;8533;48.426;10.868;2022-08-19T00:59:38;2.00;;;1.80;;
16832;SDS011;8533;48.426;10.868;2022-08-19T01:02:08;3.03;;;1.97;;
16832;SDS011;8533;48.426;10.868;2022-08-19T01:04:36;3.30;;;2.20;;
16832;SDS011;8533;48.426;10.868;2022-08-19T01:07:03;3.50;;;2.50;;
16832;SDS011;8533;48.426;10.868;2022-08-19T01:09:31;2.90;;;2.40;;
16832;SDS011;8533;48.426;10.868;2022-08-19T01:11:58;3.53;;;2.67;;
16832;SDS011;8533;48.426;10.868;2022-08-19T01:14:26;4.00;;;2.27;;
16832;SDS011;8533;48.426;10.868;2022-08-19T01:16:54;8.73;;;3.57;;
16832;SDS011;8533;48.426;10.868;2022-08-19T01:21:58;3.40;;;2.80;;
16832;SDS011;8533;48.426;10.868;2022-08-19T01:26:56;3.33;;;2.90;;
16832;SDS011;8533;48.426;10.868;2022-08-19T01:29:24;4.60;;;3.00;;
16832;SDS011;8533;48.426;10.868;2022-08-19T01:31:52;3.70;;;3.10;;
16832;SDS011;8533;48.426;10.868;2022-08-19T01:34:19;5.00;;;3.87;;
16832;SDS011;8533;48.426;10.868;2022-08-19T01:36:47;5.17;;;3.87;;
16832;SDS011;8533;48.426;10.868;2022-08-19T01:39:23;5.77;;;4.30;;
16832;SDS011;8533;48.426;10.868;2022-08-19T01:41:48;5.97;;;4.60;;
16832;SDS011;8533;48.426;10.868;2022-08-19T01:44:15;7.67;;;5.30;;
16832;SDS011;8533;48.426;10.868;2022-08-19T01:46:45;8.63;;;5.67;;
16832;SDS011;8533;48.426;10.868;2022-08-19T01:49:15;8.07;;;5.43;;
16832;SDS011;8533;48.426;10.868;2022-08-19T01:51:46;9.33;;;6.03;;
16832;SDS011;8533;48.426;10.868;2022-08-19T01:54:15;9.80;;;5.70;;
16832;SDS011;8533;48.426;10.868;2022-08-19T01:56:44;8.53;;;5.47;;
16832;SDS011;8533;48.426;10.868;2022-08-19T01:59:13;6.53;;;5.03;;
16832;SDS011;8533;48.426;10.868;2022-08-19T02:01:42;9.13;;;5.57;;
16832;SDS011;8533;48.426;10.868;2022-08-19T02:04:09;7.90;;;5.93;;
16832;SDS011;8533;48.426;10.868;2022-08-19T02:06:37;9.33;;;6.47;;
16832;SDS011;8533;48.426;10.868;2022-08-19T02:09:06;9.73;;;7.00;;
16832;SDS011;8533;48.426;10.868;2022-08-19T02:11:35;10.87;;;7.63;;
16832;SDS011;8533;48.426;10.868;2022-08-19T02:14:05;11.07;;;7.30;;
16832;SDS011;8533;48.426;10.868;2022-08-19T02:16:34;13.90;;;7.63;;
16832;SDS011;8533;48.426;10.868;2022-08-19T02:19:03;10.60;;;7.53;;
16832;SDS011;8533;48.426;10.868;2022-08-19T02:21:31;12.77;;;8.43;;
16832;SDS011;8533;48.426;10.868;2022-08-19T02:23:59;13.43;;;8.87;;
16832;SDS011;8533;48.426;10.868;2022-08-19T02:26:27;13.40;;;9.07;;
16832;SDS011;8533;48.426;10.868;2022-08-19T02:28:54;14.33;;;9.60;;
16832;SDS011;8533;48.426;10.868;2022-08-19T02:31:23;16.33;;;9.73;;
16832;SDS011;8533;48.426;10.868;2022-08-19T02:33:53;13.67;;;9.57;;
16832;SDS011;8533;48.426;10.868;2022-08-19T02:36:21;14.30;;;9.23;;
16832;SDS011;8533;48.426;10.868;2022-08-19T02:38:49;17.73;;;10.80;;
16832;SDS011;8533;48.426;10.868;2022-08-19T02:41:20;17.17;;;10.27;;
16832;SDS011;8533;48.426;10.868;2022-08-19T02:43:48;17.87;;;11.10;;
16832;SDS011;8533;48.426;10.868;2022-08-19T02:46:20;18.47;;;10.33;;
16832;SDS011;8533;48.426;10.868;2022-08-19T02:48:50;17.60;;;10.03;;
16832;SDS011;8533;48.426;10.868;2022-08-19T02:51:20;16.63;;;10.63;;
16832;SDS011;8533;48.426;10.868;2022-08-19T02:53:50;17.53;;;11.63;;
16832;SDS011;8533;48.426;10.868;2022-08-19T02:56:18;19.53;;;11.83;;
16832;SDS011;8533;48.426;10.868;2022-08-19T02:58:46;18.77;;;11.67;;
16832;SDS011;8533;48.426;10.868;2022-08-19T03:01:24;19.73;;;12.07;;
16832;SDS011;8533;48.426;10.868;2022-08-19T03:06:20;20.17;;;12.20;;
16832;SDS011;8533;48.426;10.868;2022-08-19T03:08:49;20.90;;;12.60;;
16832;SDS011;8533;48.426;10.868;2022-08-19T03:11:18;24.93;;;13.70;;
16832;SDS011;8533;48.426;10.868;2022-08-19T03:13:48;19.57;;;11.90;;
16832;SDS011;8533;48.426;10.868;2022-08-19T03:16:22;20.30;;;12.63;;
16832;SDS011;8533;48.426;10.868;2022-08-19T03:18:46;21.53;;;11.97;;
16832;SDS011;8533;48.426;10.868;2022-08-19T03:21:19;19.60;;;12.53;;
16832;SDS011;8533;48.426;10.868;2022-08-19T03:23:47;23.50;;;13.67;;
16832;SDS011;8533;48.426;10.868;2022-08-19T03:26:14;19.90;;;12.67;;
16832;SDS011;8533;48.426;10.868;2022-08-19T03:28:44;20.73;;;12.17;;
16832;SDS011;8533;48.426;10.868;2022-08-19T03:31:14;20.13;;;12.47;;
16832;SDS011;8533;48.426;10.868;2022-08-19T03:33:43;21.13;;;13.57;;
16832;SDS011;8533;48.426;10.868;2022-08-19T03:36:17;21.03;;;13.00;;
16832;SDS011;8533;48.426;10.868;2022-08-19T03:38:43;22.80;;;13.20;;
16832;SDS011;8533;48.426;10.868;2022-08-19T03:41:16;21.50;;;12.90;;
16832;SDS011;8533;48.426;10.868;2022-08-19T03:43:48;22.13;;;13.40;;
16832;SDS011;8533;48.426;10.868;2022-08-19T03:46:16;21.17;;;12.87;;
16832;SDS011;8533;48.426;10.868;2022-08-19T03:48:50;23.13;;;13.67;;
16832;SDS011;8533;48.426;10.868;2022-08-19T03:51:23;22.83;;;13.57;;
16832;SDS011;8533;48.426;10.868;2022-08-19T03:53:52;21.70;;;12.53;;
16832;SDS011;8533;48.426;10.868;2022-08-19T03:56:21;21.97;;;12.67;;
16832;SDS011;8533;48.426;10.868;2022-08-19T03:58:50;23.80;;;14.50;;
16832;SDS011;8533;48.426;10.868;2022-08-19T04:01:22;24.00;;;14.83;;
16832;SDS011;8533;48.426;10.868;2022-08-19T04:03:48;23.10;;;14.30;;
16832;SDS011;8533;48.426;10.868;2022-08-19T04:06:17;23.73;;;14.07;;
16832;SDS011;8533;48.426;10.868;2022-08-19T04:08:47;25.83;;;14.73;;
16832;SDS011;8533;48.426;10.868;2022-08-19T04:13:50;24.20;;;13.87;;
16832;SDS011;8533;48.426;10.868;2022-08-19T04:16:20;25.73;;;14.47;;
16832;SDS011;8533;48.426;10.868;2022-08-19T04:18:49;23.57;;;13.53;;
16832;SDS011;8533;48.426;10.868;2022-08-19T04:21:18;24.70;;;13.90;;
16832;SDS011;8533;48.426;10.868;2022-08-19T04:23:48;23.77;;;13.53;;
16832;SDS011;8533;48.426;10.868;2022-08-19T04:26:26;25.37;;;14.60;;
16832;SDS011;8533;48.426;10.868;2022-08-19T04:31:23;22.00;;;13.63;;
16832;SDS011;8533;48.426;10.868;2022-08-19T04:33:53;23.47;;;13.70;;
16832;SDS011;8533;48.426;10.868;2022-08-19T04:36:24;22.07;;;13.87;;
16832;SDS011;8533;48.426;10.868;2022-08-19T04:38:56;23.37;;;14.03;;
16832;SDS011;8533;48.426;10.868;2022-08-19T04:41:26;24.83;;;14.63;;
16832;SDS011;8533;48.426;10.868;2022-08-19T04:44:12;23.80;;;13.70;;
16832;SDS011;8533;48.426;10.868;2022-08-19T04:46:41;25.13;;;14.03;;
16832;SDS011;8533;48.426;10.868;2022-08-19T04:49:09;24.90;;;14.90;;
16832;SDS011;8533;48.426;10.868;2022-08-19T04:51:39;29.20;;;15.63;;
16832;SDS011;8533;48.426;10.868;2022-08-19T04:54:08;22.70;;;14.57;;
16832;SDS011;8533;48.426;10.868;2022-08-19T04:56:35;23.47;;;14.47;;
16832;SDS011;8533;48.426;10.868;2022-08-19T04:59:06;24.33;;;15.03;;
16832;SDS011;8533;48.426;10.868;2022-08-19T05:01:34;24.37;;;15.00;;
16832;SDS011;8533;48.426;10.868;2022-08-19T05:04:02;25.33;;;14.60;;
16832;SDS011;8533;48.426;10.868;2022-08-19T05:06:32;28.87;;;15.60;;
16832;SDS011;8533;48.426;10.868;2022-08-19T05:09:02;27.17;;;15.37;;
16832;SDS011;8533;48.426;10.868;2022-08-19T05:11:32;25.17;;;14.37;;
16832;SDS011;8533;48.426;10.868;2022-08-19T05:14:03;26.67;;;15.43;;
16832;SDS011;8533;48.426;10.868;2022-08-19T05:16:33;31.97;;;16.47;;
16832;SDS011;8533;48.426;10.868;2022-08-19T05:19:00;29.50;;;15.40;;
16832;SDS011;8533;48.426;10.868;2022-08-19T05:21:46;31.35;;;16.45;;
16832;SDS011;8533;48.426;10.868;2022-08-19T05:24:31;30.70;;;16.00;;
16832;SDS011;8533;48.426;10.868;2022-08-19T05:26:59;27.33;;;15.10;;
16832;SDS011;8533;48.426;10.868;2022-08-19T05:29:29;28.03;;;15.37;;
16832;SDS011;8533;48.426;10.868;2022-08-19T05:31:57;27.67;;;16.17;;
16832;SDS011;8533;48.426;10.868;2022-08-19T05:34:25;25.90;;;15.10;;
16832;SDS011;8533;48.426;10.868;2022-08-19T05:36:56;26.30;;;15.67;;
16832;SDS011;8533;48.426;10.868;2022-08-19T05:39:26;28.70;;;16.13;;
16832;SDS011;8533;48.426;10.868;2022-08-19T05:41:56;26.93;;;15.70;;
16832;SDS011;8533;48.426;10.868;2022-08-19T05:44:28;28.30;;;16.37;;
16832;SDS011;8533;48.426;10.868;2022-08-19T05:46:57;29.57;;;15.60;;
16832;SDS011;8533;48.426;10.868;2022-08-19T05:49:26;28.43;;;15.53;;
16832;SDS011;8533;48.426;10.868;2022-08-19T05:51:54;30.53;;;16.73;;
16832;SDS011;8533;48.426;10.868;2022-08-19T05:54:23;29.67;;;16.10;;
16832;SDS011;8533;48.426;10.868;2022-08-19T05:56:52;29.87;;;16.73;;
16832;SDS011;8533;48.426;10.868;2022-08-19T05:59:20;29.07;;;15.43;;
16832;SDS011;8533;48.426;10.868;2022-08-19T06:01:49;30.30;;;15.60;;
16832;SDS011;8533;48.426;10.868;2022-08-19T06:04:20;27.57;;;14.40;;
16832;SDS011;8533;48.426;10.868;2022-08-19T06:06:48;29.77;;;15.17;;
16832;SDS011;8533;48.426;10.868;2022-08-19T06:09:19;29.80;;;15.43;;
16832;SDS011;8533;48.426;10.868;2022-08-19T06:11:55;25.73;;;15.57;;
16832;SDS011;8533;48.426;10.868;2022-08-19T06:14:22;28.53;;;15.90;;
16832;SDS011;8533;48.426;10.868;2022-08-19T06:16:51;26.80;;;14.33;;
16832;SDS011;8533;48.426;10.868;2022-08-19T06:19:20;28.83;;;16.23;;
16832;SDS011;8533;48.426;10.868;2022-08-19T06:21:51;26.93;;;15.53;;
16832;SDS011;8533;48.426;10.868;2022-08-19T06:24:20;26.87;;;15.23;;
16832;SDS011;8533;48.426;10.868;2022-08-19T06:26:51;30.50;;;16.40;;
16832;SDS011;8533;48.426;10.868;2022-08-19T06:29:21;29.73;;;16.83;;
16832;SDS011;8533;48.426;10.868;2022-08-19T06:31:51;27.23;;;15.40;;
16832;SDS011;8533;48.426;10.868;2022-08-19T06:34:21;26.90;;;15.10;;
16832;SDS011;8533;48.426;10.868;2022-08-19T06:36:51;32.07;;;16.57;;
16832;SDS011;8533;48.426;10.868;2022-08-19T06:39:21;29.53;;;15.53;;
16832;SDS011;8533;48.426;10.868;2022-08-19T06:41:51;33.93;;;17.17;;
16832;SDS011;8533;48.426;10.868;2022-08-19T06:44:21;28.10;;;15.47;;
16832;SDS011;8533;48.426;10.868;2022-08-19T06:46:52;30.03;;;16.83;;
16832;SDS011;8533;48.426;10.868;2022-08-19T06:49:22;30.40;;;16.87;;
16832;SDS011;8533;48.426;10.868;2022-08-19T06:51:52;30.20;;;16.27;;
16832;SDS011;8533;48.426;10.868;2022-08-19T06:54:21;34.03;;;17.67;;
16832;SDS011;8533;48.426;10.868;2022-08-19T06:56:48;37.77;;;18.37;;
16832;SDS011;8533;48.426;10.868;2022-08-19T06:59:18;32.03;;;17.43;;
16832;SDS011;8533;48.426;10.868;2022-08-19T07:01:48;31.37;;;16.93;;
16832;SDS011;8533;48.426;10.868;2022-08-19T07:04:18;34.60;;;17.63;;
16832;SDS011;8533;48.426;10.868;2022-08-19T07:06:48;34.53;;;18.03;;
16832;SDS011;8533;48.426;10.868;2022-08-19T07:09:17;38.00;;;18.00;;
16832;SDS011;8533;48.426;10.868;2022-08-19T07:11:51;32.07;;;17.87;;
16832;SDS011;8533;48.426;10.868;2022-08-19T07:14:16;29.73;;;16.93;;
16832;SDS011;8533;48.426;10.868;2022-08-19T07:16:47;33.00;;;17.23;;
16832;SDS011;8533;48.426;10.868;2022-08-19T07:19:17;32.77;;;17.97;;
16832;SDS011;8533;48.426;10.868;2022-08-19T07:21:47;33.33;;;17.43;;
16832;SDS011;8533;48.426;10.868;2022-08-19T07:24:18;33.50;;;17.27;;
16832;SDS011;8533;48.426;10.868;2022-08-19T07:26:49;31.53;;;17.37;;
16832;SDS011;8533;48.426;10.868;2022-08-19T07:29:18;33.23;;;17.07;;
16832;SDS011;8533;48.426;10.868;2022-08-19T07:31:49;34.13;;;17.60;;
16832;SDS011;8533;48.426;10.868;2022-08-19T07:34:18;35.27;;;17.90;;
16832;SDS011;8533;48.426;10.868;2022-08-19T07:36:47;31.73;;;17.43;;
16832;SDS011;8533;48.426;10.868;2022-08-19T07:39:20;33.80;;;18.17;;
16832;SDS011;8533;48.426;10.868;2022-08-19T07:41:49;33.57;;;17.23;;
16832;SDS011;8533;48.426;10.868;2022-08-19T07:44:18;32.77;;;18.03;;
16832;SDS011;8533;48.426;10.868;2022-08-19T07:46:48;32.73;;;17.90;;
16832;SDS011;8533;48.426;10.868;2022-08-19T07:49:17;32.53;;;17.97;;
16832;SDS011;8533;48.426;10.868;2022-08-19T07:51:47;36.40;;;18.40;;
16832;SDS011;8533;48.426;10.868;2022-08-19T07:54:17;39.40;;;18.50;;
16832;SDS011;8533;48.426;10.868;2022-08-19T07:56:47;38.67;;;19.53;;
16832;SDS011;8533;48.426;10.868;2022-08-19T07:59:17;38.07;;;19.60;;
16832;SDS011;8533;48.426;10.868;2022-08-19T08:01:46;37.57;;;18.97;;
16832;SDS011;8533;48.426;10.868;2022-08-19T08:04:16;34.40;;;17.37;;
16832;SDS011;8533;48.426;10.868;2022-08-19T08:07:03;39.03;;;19.37;;
16832;SDS011;8533;48.426;10.868;2022-08-19T08:09:49;38.40;;;18.27;;
16832;SDS011;8533;48.426;10.868;2022-08-19T08:17:25;33.20;;;17.63;;
16832;SDS011;8533;48.426;10.868;2022-08-19T08:19:53;31.17;;;16.73;;
16832;SDS011;8533;48.426;10.868;2022-08-19T08:22:22;32.20;;;17.17;;
16832;SDS011;8533;48.426;10.868;2022-08-19T08:25:09;33.97;;;16.80;;
16832;SDS011;8533;48.426;10.868;2022-08-19T08:27:39;34.53;;;17.30;;
16832;SDS011;8533;48.426;10.868;2022-08-19T08:30:09;32.60;;;17.90;;
16832;SDS011;8533;48.426;10.868;2022-08-19T08:32:40;37.10;;;18.77;;
16832;SDS011;8533;48.426;10.868;2022-08-19T08:35:09;39.00;;;18.77;;
16832;SDS011;8533;48.426;10.868;2022-08-19T08:37:39;36.80;;;18.87;;
16832;SDS011;8533;48.426;10.868;2022-08-19T08:40:07;33.43;;;18.20;;
16832;SDS011;8533;48.426;10.868;2022-08-19T08:42:54;38.55;;;18.90;;
16832;SDS011;8533;48.426;10.868;2022-08-19T08:45:23;36.40;;;18.20;;
16832;SDS011;8533;48.426;10.868;2022-08-19T08:47:51;38.70;;;19.97;;
16832;SDS011;8533;48.426;10.868;2022-08-19T08:50:23;40.07;;;19.40;;
16832;SDS011;8533;48.426;10.868;2022-08-19T08:55:27;37.03;;;19.20;;
16832;SDS011;8533;48.426;10.868;2022-08-19T08:58:05;39.53;;;18.73;;
16832;SDS011;8533;48.426;10.868;2022-08-19T09:03:06;37.63;;;18.53;;
16832;SDS011;8533;48.426;10.868;2022-08-19T09:05:41;38.33;;;19.20;;
16832;SDS011;8533;48.426;10.868;2022-08-19T09:16:18;38.50;;;18.83;;
16832;SDS011;8533;48.426;10.868;2022-08-19T09:18:50;40.83;;;19.77;;
16832;SDS011;8533;48.426;10.868;2022-08-19T09:21:20;39.03;;;19.70;;
16832;SDS011;8533;48.426;10.868;2022-08-19T09:23:48;40.10;;;19.07;;
16832;SDS011;8533;48.426;10.868;2022-08-19T09:26:18;41.67;;;19.47;;
16832;SDS011;8533;48.426;10.868;2022-08-19T09:28:48;37.13;;;17.87;;
16832;SDS011;8533;48.426;10.868;2022-08-19T09:31:24;40.03;;;19.23;;
16832;SDS011;8533;48.426;10.868;2022-08-19T09:36:24;40.87;;;19.03;;
16832;SDS011;8533;48.426;10.868;2022-08-19T09:38:54;34.30;;;18.27;;
16832;SDS011;8533;48.426;10.868;2022-08-19T09:41:23;36.37;;;18.90;;
16832;SDS011;8533;48.426;10.868;2022-08-19T09:43:51;41.03;;;18.73;;
16832;SDS011;8533;48.426;10.868;2022-08-19T09:46:23;36.70;;;18.47;;
16832;SDS011;8533;48.426;10.868;2022-08-19T09:48:52;34.73;;;17.67;;
16832;SDS011;8533;48.426;10.868;2022-08-19T09:51:23;38.90;;;19.33;;
16832;SDS011;8533;48.426;10.868;2022-08-19T09:53:53;38.10;;;19.00;;
16832;SDS011;8533;48.426;10.868;2022-08-19T09:56:22;33.67;;;18.13;;
16832;SDS011;8533;48.426;10.868;2022-08-19T09:58:50;39.20;;;18.87;;
16832;SDS011;8533;48.426;10.868;2022-08-19T10:01:21;34.50;;;18.23;;
16832;SDS011;8533;48.426;10.868;2022-08-19T10:03:53;33.47;;;18.13;;
16832;SDS011;8533;48.426;10.868;2022-08-19T10:06:24;34.90;;;17.97;;
16832;SDS011;8533;48.426;10.868;2022-08-19T10:11:22;34.00;;;16.47;;
16832;SDS011;8533;48.426;10.868;2022-08-19T10:13:50;37.27;;;18.30;;
16832;SDS011;8533;48.426;10.868;2022-08-19T10:16:19;32.20;;;17.83;;
16832;SDS011;8533;48.426;10.868;2022-08-19T10:18:48;32.80;;;16.20;;
16832;SDS011;8533;48.426;10.868;2022-08-19T10:21:17;35.73;;;18.00;;
16832;SDS011;8533;48.426;10.868;2022-08-19T10:23:48;34.67;;;16.80;;
16832;SDS011;8533;48.426;10.868;2022-08-19T10:26:18;35.83;;;16.97;;
16832;SDS011;8533;48.426;10.868;2022-08-19T10:28:47;31.23;;;16.73;;
16832;SDS011;8533;48.426;10.868;2022-08-19T10:31:16;29.47;;;16.87;;
16832;SDS011;8533;48.426;10.868;2022-08-19T10:33:47;28.67;;;15.27;;
16832;SDS011;8533;48.426;10.868;2022-08-19T10:36:21;29.87;;;15.77;;
16832;SDS011;8533;48.426;10.868;2022-08-19T10:38:46;45.47;;;17.73;;
16832;SDS011;8533;48.426;10.868;2022-08-19T10:41:16;36.40;;;16.90;;
16832;SDS011;8533;48.426;10.868;2022-08-19T10:43:45;35.57;;;16.87;;
16832;SDS011;8533;48.426;10.868;2022-08-19T10:46:14;32.67;;;15.43;;
16832;SDS011;8533;48.426;10.868;2022-08-19T10:48:42;31.83;;;16.43;;
16832;SDS011;8533;48.426;10.868;2022-08-19T10:51:11;36.60;;;16.20;;
16832;SDS011;8533;48.426;10.868;2022-08-19T10:53:56;33.00;;;16.45;;
16832;SDS011;8533;48.426;10.868;2022-08-19T10:56:25;34.73;;;16.87;;
16832;SDS011;8533;48.426;10.868;2022-08-19T10:59:11;35.87;;;17.83;;
16832;SDS011;8533;48.426;10.868;2022-08-19T11:01:40;34.57;;;17.57;;
16832;SDS011;8533;48.426;10.868;2022-08-19T11:04:09;36.27;;;16.63;;
16832;SDS011;8533;48.426;10.868;2022-08-19T11:06:41;33.17;;;16.10;;
16832;SDS011;8533;48.426;10.868;2022-08-19T11:09:12;36.63;;;17.67;;
16832;SDS011;8533;48.426;10.868;2022-08-19T11:11:41;35.43;;;15.97;;
16832;SDS011;8533;48.426;10.868;2022-08-19T11:14:10;30.13;;;16.47;;
16832;SDS011;8533;48.426;10.868;2022-08-19T11:16:39;36.13;;;16.20;;
16832;SDS011;8533;48.426;10.868;2022-08-19T11:19:09;31.23;;;16.80;;
16832;SDS011;8533;48.426;10.868;2022-08-19T11:21:40;35.20;;;16.43;;
16832;SDS011;8533;48.426;10.868;2022-08-19T11:24:11;32.40;;;16.77;;
16832;SDS011;8533;48.426;10.868;2022-08-19T11:26:41;32.50;;;16.53;;
16832;SDS011;8533;48.426;10.868;2022-08-19T11:29:11;34.57;;;18.30;;
16832;SDS011;8533;48.426;10.868;2022-08-19T11:31:40;34.80;;;16.30;;
16832;SDS011;8533;48.426;10.868;2022-08-19T11:34:12;36.37;;;17.53;;
16832;SDS011;8533;48.426;10.868;2022-08-19T11:36:42;35.07;;;17.53;;
16832;SDS011;8533;48.426;10.868;2022-08-19T11:39:12;29.83;;;15.10;;
16832;SDS011;8533;48.426;10.868;2022-08-19T11:41:41;28.20;;;13.13;;
16832;SDS011;8533;48.426;10.868;2022-08-19T11:44:09;23.33;;;12.43;;
16832;SDS011;8533;48.426;10.868;2022-08-19T11:46:37;25.43;;;10.13;;
16832;SDS011;8533;48.426;10.868;2022-08-19T11:49:05;38.57;;;8.30;;
16832;SDS011;8533;48.426;10.868;2022-08-19T11:51:36;20.43;;;6.87;;
16832;SDS011;8533;48.426;10.868;2022-08-19T11:54:04;13.10;;;7.13;;
16832;SDS011;8533;48.426;10.868;2022-08-19T11:56:32;17.43;;;9.00;;
16832;SDS011;8533;48.426;10.868;2022-08-19T11:59:00;21.10;;;11.73;;
16832;SDS011;8533;48.426;10.868;2022-08-19T12:01:28;25.27;;;12.53;;
16832;SDS011;8533;48.426;10.868;2022-08-19T12:03:57;27.27;;;13.57;;
16832;SDS011;8533;48.426;10.868;2022-08-19T12:06:27;41.50;;;15.37;;
16832;SDS011;8533;48.426;10.868;2022-08-19T12:09:03;31.90;;;16.20;;
16832;SDS011;8533;48.426;10.868;2022-08-19T12:11:28;32.90;;;16.53;;
16832;SDS011;8533;48.426;10.868;2022-08-19T12:13:55;28.57;;;14.73;;
16832;SDS011;8533;48.426;10.868;2022-08-19T12:16:25;30.53;;;15.70;;
16832;SDS011;8533;48.426;10.868;2022-08-19T12:18:54;30.13;;;15.27;;
16832;SDS011;8533;48.426;10.868;2022-08-19T12:21:23;27.17;;;14.63;;
16832;SDS011;8533;48.426;10.868;2022-08-19T12:23:54;28.87;;;13.80;;
16832;SDS011;8533;48.426;10.868;2022-08-19T12:26:24;21.23;;;11.33;;
16832;SDS011;8533;48.426;10.868;2022-08-19T12:28:53;14.07;;;7.70;;
16832;SDS011;8533;48.426;10.868;2022-08-19T12:31:21;9.53;;;6.07;;
16832;SDS011;8533;48.426;10.868;2022-08-19T12:33:48;10.57;;;5.43;;
16832;SDS011;8533;48.426;10.868;2022-08-19T12:36:17;7.30;;;4.87;;
16832;SDS011;8533;48.426;10.868;2022-08-19T12:38:45;6.80;;;4.53;;
16832;SDS011;8533;48.426;10.868;2022-08-19T12:41:13;7.80;;;4.53;;
16832;SDS011;8533;48.426;10.868;2022-08-19T12:43:43;7.33;;;4.63;;
16832;SDS011;8533;48.426;10.868;2022-08-19T12:46:12;5.73;;;4.00;;
16832;SDS011;8533;48.426;10.868;2022-08-19T12:48:39;5.43;;;3.90;;
16832;SDS011;8533;48.426;10.868;2022-08-19T12:51:08;6.43;;;3.73;;
16832;SDS011;8533;48.426;10.868;2022-08-19T12:53:37;4.40;;;3.37;;
16832;SDS011;8533;48.426;10.868;2022-08-19T12:56:06;6.07;;;3.60;;
16832;SDS011;8533;48.426;10.868;2022-08-19T12:58:35;5.17;;;3.97;;
16832;SDS011;8533;48.426;10.868;2022-08-19T13:01:06;4.30;;;3.40;;
16832;SDS011;8533;48.426;10.868;2022-08-19T13:03:36;6.00;;;3.63;;
16832;SDS011;8533;48.426;10.868;2022-08-19T13:06:04;6.50;;;3.63;;
16832;SDS011;8533;48.426;10.868;2022-08-19T13:08:31;4.67;;;3.40;;
16832;SDS011;8533;48.426;10.868;2022-08-19T13:11:06;5.53;;;3.73;;
16832;SDS011;8533;48.426;10.868;2022-08-19T13:16:08;7.97;;;5.20;;
16832;SDS011;8533;48.426;10.868;2022-08-19T13:18:37;10.03;;;5.60;;
16832;SDS011;8533;48.426;10.868;2022-08-19T13:21:08;10.13;;;6.53;;
16832;SDS011;8533;48.426;10.868;2022-08-19T13:23:39;14.03;;;7.53;;
16832;SDS011;8533;48.426;10.868;2022-08-19T13:26:07;12.23;;;7.23;;
16832;SDS011;8533;48.426;10.868;2022-08-19T13:28:37;11.13;;;7.47;;
16832;SDS011;8533;48.426;10.868;2022-08-19T13:31:24;18.50;;;9.73;;
16832;SDS011;8533;48.426;10.868;2022-08-19T13:34:11;16.50;;;8.67;;
16832;SDS011;8533;48.426;10.868;2022-08-19T13:36:40;15.33;;;9.13;;
16832;SDS011;8533;48.426;10.868;2022-08-19T13:39:07;19.07;;;9.20;;
16832;SDS011;8533;48.426;10.868;2022-08-19T13:41:36;17.90;;;9.00;;
16832;SDS011;8533;48.426;10.868;2022-08-19T13:44:05;17.37;;;9.67;;
16832;SDS011;8533;48.426;10.868;2022-08-19T13:46:33;17.70;;;10.00;;
16832;SDS011;8533;48.426;10.868;2022-08-19T13:49:01;18.40;;;10.67;;
16832;SDS011;8533;48.426;10.868;2022-08-19T13:51:29;21.87;;;11.13;;
16832;SDS011;8533;48.426;10.868;2022-08-19T13:53:57;19.40;;;11.27;;
16832;SDS011;8533;48.426;10.868;2022-08-19T13:56:24;19.43;;;11.80;;
16832;SDS011;8533;48.426;10.868;2022-08-19T13:58:52;21.67;;;12.03;;
16832;SDS011;8533;48.426;10.868;2022-08-19T14:01:22;23.63;;;12.10;;
16832;SDS011;8533;48.426;10.868;2022-08-19T14:03:51;21.97;;;12.50;;
16832;SDS011;8533;48.426;10.868;2022-08-19T14:06:19;27.50;;;12.47;;
16832;SDS011;8533;48.426;10.868;2022-08-19T14:08:47;24.37;;;12.73;;
16832;SDS011;8533;48.426;10.868;2022-08-19T14:11:15;23.33;;;12.57;;
16832;SDS011;8533;48.426;10.868;2022-08-19T14:13:42;21.83;;;12.97;;
16832;SDS011;8533;48.426;10.868;2022-08-19T14:16:11;21.93;;;12.37;;
16832;SDS011;8533;48.426;10.868;2022-08-19T14:18:40;21.80;;;12.87;;
16832;SDS011;8533;48.426;10.868;2022-08-19T14:21:14;21.73;;;12.07;;
16832;SDS011;8533;48.426;10.868;2022-08-19T14:23:44;24.03;;;12.93;;
16832;SDS011;8533;48.426;10.868;2022-08-19T14:26:13;20.00;;;11.70;;
16832;SDS011;8533;48.426;10.868;2022-08-19T14:28:43;19.83;;;10.87;;
16832;SDS011;8533;48.426;10.868;2022-08-19T14:31:11;20.77;;;11.60;;
16832;SDS011;8533;48.426;10.868;2022-08-19T14:33:43;21.27;;;10.67;;
16832;SDS011;8533;48.426;10.868;2022-08-19T14:36:12;20.03;;;11.23;;
16832;SDS011;8533;48.426;10.868;2022-08-19T14:38:40;18.97;;;11.77;;
16832;SDS011;8533;48.426;10.868;2022-08-19T14:41:19;17.33;;;10.70;;
16832;SDS011;8533;48.426;10.868;2022-08-19T14:46:16;20.97;;;11.40;;
16832;SDS011;8533;48.426;10.868;2022-08-19T14:48:46;19.30;;;11.27;;
16832;SDS011;8533;48.426;10.868;2022-08-19T14:51:15;16.37;;;10.53;;
16832;SDS011;8533;48.426;10.868;2022-08-19T14:53:43;16.83;;;10.13;;
16832;SDS011;8533;48.426;10.868;2022-08-19T14:56:15;16.87;;;10.23;;
16832;SDS011;8533;48.426;10.868;2022-08-19T14:58:43;20.37;;;10.30;;
16832;SDS011;8533;48.426;10.868;2022-08-19T15:01:11;17.30;;;9.63;;
16832;SDS011;8533;48.426;10.868;2022-08-19T15:03:39;16.13;;;9.77;;
16832;SDS011;8533;48.426;10.868;2022-08-19T15:06:07;16.00;;;9.30;;
16832;SDS011;8533;48.426;10.868;2022-08-19T15:08:35;17.13;;;8.87;;
16832;SDS011;8533;48.426;10.868;2022-08-19T15:11:07;15.30;;;9.23;;
16832;SDS011;8533;48.426;10.868;2022-08-19T15:13:37;17.67;;;9.77;;
16832;SDS011;8533;48.426;10.868;2022-08-19T15:16:05;14.87;;;9.60;;
16832;SDS011;8533;48.426;10.868;2022-08-19T15:18:33;15.07;;;9.47;;
16832;SDS011;8533;48.426;10.868;2022-08-19T15:21:02;16.90;;;9.80;;
16832;SDS011;8533;48.426;10.868;2022-08-19T15:23:30;15.00;;;9.03;;
16832;SDS011;8533;48.426;10.868;2022-08-19T15:25:57;12.40;;;8.00;;
16832;SDS011;8533;48.426;10.868;2022-08-19T15:28:25;13.23;;;8.23;;